createdAt,value
2023-09-30T00:01:13.154Z,102535.66
2023-09-30T00:03:18.461Z,102535.72
2023-09-30T00:05:23.738Z,102532.19
2023-09-30T00:07:28.992Z,102533.09
2023-09-30T00:09:34.023Z,102529.53
2023-09-30T00:11:39.050Z,102530.31
2023-09-30T00:13:47.151Z,102533.81
2023-09-30T00:15:52.324Z,102526.66
2023-09-30T00:18:02.740Z,102530.19
2023-09-30T00:20:12.358Z,102532.94
2023-09-30T00:22:17.498Z,102528.63
2023-09-30T00:24:20.176Z,102527.63
2023-09-30T00:26:25.162Z,102526.78
2023-09-30T00:28:30.552Z,102532.03
2023-09-30T00:30:35.796Z,102527.78
2023-09-30T00:32:41.266Z,102528.78
2023-09-30T00:34:50.123Z,102538.41
2023-09-30T00:36:56.276Z,102549.06
2023-09-30T00:39:01.492Z,102550.84
2023-09-30T00:41:06.446Z,102557.84
2023-09-30T00:43:21.686Z,102551.78
2023-09-30T00:45:26.750Z,102566.75
2023-09-30T00:47:32.053Z,102567.59
2023-09-30T00:49:37.446Z,102550.94
2023-09-30T00:51:48.391Z,102548.38
2023-09-30T00:53:56.302Z,102545.81
2023-09-30T00:56:02.975Z,102562.63
2023-09-30T00:58:08.604Z,102560.06
2023-09-30T01:00:17.082Z,102572.41
2023-09-30T01:02:22.611Z,102579.41
2023-09-30T01:04:27.968Z,102586.53
2023-09-30T01:06:36.052Z,102589.19
2023-09-30T01:08:44.346Z,102592.81
2023-09-30T01:10:52.435Z,102584.03
2023-09-30T01:13:00.374Z,102584.97
2023-09-30T01:15:08.091Z,102578.81
2023-09-30T01:17:17.225Z,102584.25
2023-09-30T01:19:19.700Z,102579.00
2023-09-30T01:21:25.033Z,102574.56
2023-09-30T01:23:32.798Z,102566.56
2023-09-30T01:25:39.768Z,102566.56
2023-09-30T01:27:47.258Z,102568.34
2023-09-30T01:29:52.316Z,102570.16
2023-09-30T01:32:00.634Z,102573.53
2023-09-30T01:34:03.163Z,102582.25
2023-09-30T01:36:08.703Z,102583.16
2023-09-30T01:38:13.634Z,102571.72
2023-09-30T01:40:23.606Z,102570.91
2023-09-30T01:42:39.350Z,102576.97
2023-09-30T01:45:05.059Z,102575.00
2023-09-30T01:47:11.676Z,102569.81
2023-09-30T01:49:35.118Z,102577.78
2023-09-30T01:51:46.617Z,102578.56
2023-09-30T01:53:52.455Z,102586.34
2023-09-30T01:56:10.030Z,102580.22
2023-09-30T01:58:15.501Z,102582.69
2023-09-30T02:00:21.233Z,102572.06
2023-09-30T02:02:27.742Z,102585.97
2023-09-30T02:04:35.732Z,102579.88
2023-09-30T02:06:44.447Z,102579.88
2023-09-30T02:09:10.621Z,102583.97
2023-09-30T02:11:18.822Z,102574.44
2023-09-30T02:13:28.564Z,102569.28
2023-09-30T02:15:33.761Z,102560.28
2023-09-30T02:17:38.760Z,102561.97
2023-09-30T02:19:48.618Z,102554.06
2023-09-30T02:21:53.740Z,102553.09
2023-09-30T02:23:59.377Z,102561.81
2023-09-30T02:26:04.606Z,102568.81
2023-09-30T02:28:09.858Z,102558.31
2023-09-30T02:30:17.586Z,102562.72
2023-09-30T02:32:22.539Z,102558.47
2023-09-30T02:34:27.614Z,102556.63
2023-09-30T02:36:32.639Z,102555.81
2023-09-30T02:38:38.547Z,102547.94
2023-09-30T02:40:46.684Z,102547.06
2023-09-30T02:42:49.181Z,102556.78
2023-09-30T02:44:57.020Z,102561.03
2023-09-30T02:47:01.889Z,102567.28
2023-09-30T02:49:06.736Z,102578.78
2023-09-30T02:51:16.496Z,102569.22
2023-09-30T02:53:21.610Z,102572.66
2023-09-30T02:55:26.723Z,102563.81
2023-09-30T02:57:32.914Z,102559.34
2023-09-30T02:59:38.441Z,102554.97
2023-09-30T03:01:48.165Z,102554.91
2023-09-30T03:03:53.299Z,102550.41
2023-09-30T03:05:58.884Z,102554.81
2023-09-30T03:08:05.925Z,102555.47
2023-09-30T03:10:11.700Z,102555.53
2023-09-30T03:12:16.886Z,102563.44
2023-09-30T03:14:22.062Z,102555.53
2023-09-30T03:16:27.198Z,102559.06
2023-09-30T03:18:36.556Z,102557.31
2023-09-30T03:20:42.671Z,102551.00
2023-09-30T03:22:48.287Z,102550.16
2023-09-30T03:24:58.319Z,102551.03
2023-09-30T03:27:03.443Z,102554.44
2023-09-30T03:29:08.465Z,102546.44
2023-09-30T03:31:13.474Z,102550.69
2023-09-30T03:33:18.640Z,102549.84
2023-09-30T03:35:25.325Z,102550.94
2023-09-30T03:37:32.704Z,102555.19
2023-09-30T03:39:37.830Z,102551.72
2023-09-30T03:41:42.686Z,102559.72
2023-09-30T03:43:48.911Z,102555.34
2023-09-30T03:45:55.648Z,102551.94
2023-09-30T03:48:00.898Z,102550.94
2023-09-30T03:50:06.116Z,102552.81
2023-09-30T03:52:16.711Z,102557.16
2023-09-30T03:54:22.289Z,102554.56
2023-09-30T03:56:27.294Z,102554.63
2023-09-30T03:58:32.429Z,102542.19
2023-09-30T04:00:37.556Z,102544.66
2023-09-30T04:02:44.061Z,102549.06
2023-09-30T04:04:52.612Z,102552.63
2023-09-30T04:07:00.734Z,102555.19
2023-09-30T04:09:11.609Z,102549.72
2023-09-30T04:11:19.810Z,102551.66
2023-09-30T04:13:25.578Z,102541.16
2023-09-30T04:15:32.515Z,102543.81
2023-09-30T04:17:38.932Z,102543.88
2023-09-30T04:19:44.123Z,102545.59
2023-09-30T04:21:51.910Z,102548.28
2023-09-30T04:23:57.500Z,102557.94
2023-09-30T04:26:06.558Z,102564.91
2023-09-30T04:28:11.847Z,102566.63
2023-09-30T04:30:16.697Z,102564.84
2023-09-30T04:32:21.813Z,102571.81
2023-09-30T04:34:28.878Z,102564.72
2023-09-30T04:36:36.598Z,102570.00
2023-09-30T04:38:39.152Z,102568.31
2023-09-30T04:40:49.541Z,102566.59
2023-09-30T04:42:59.883Z,102577.19
2023-09-30T04:45:02.571Z,102573.81
2023-09-30T04:47:07.909Z,102578.19
2023-09-30T04:49:13.159Z,102577.31
2023-09-30T04:51:19.797Z,102574.56
2023-09-30T04:53:24.861Z,102571.13
2023-09-30T04:55:30.495Z,102569.41
2023-09-30T04:57:35.834Z,102570.25
2023-09-30T04:59:43.938Z,102574.63
2023-09-30T05:01:51.453Z,102578.25
2023-09-30T05:03:59.410Z,102570.41
2023-09-30T05:06:05.059Z,102573.84
2023-09-30T05:08:11.950Z,102577.53
2023-09-30T05:10:15.247Z,102573.25
2023-09-30T05:12:20.516Z,102578.56
2023-09-30T05:14:25.793Z,102578.72
2023-09-30T05:16:36.028Z,102579.63
2023-09-30T05:18:49.713Z,102577.91
2023-09-30T05:20:57.015Z,102583.19
2023-09-30T05:23:08.351Z,102580.72
2023-09-30T05:25:13.994Z,102584.28
2023-09-30T05:27:21.370Z,102581.63
2023-09-30T05:29:26.650Z,102574.66
2023-09-30T05:31:42.840Z,102570.09
2023-09-30T05:33:48.124Z,102581.72
2023-09-30T05:35:54.727Z,102585.25
2023-09-30T05:38:15.349Z,102584.53
2023-09-30T05:40:26.566Z,102588.84
2023-09-30T05:42:37.206Z,102593.25
2023-09-30T05:45:05.066Z,102591.53
2023-09-30T05:47:17.748Z,102593.25
2023-09-30T05:49:29.836Z,102592.22
2023-09-30T05:51:35.382Z,102594.88
2023-09-30T05:53:43.594Z,102588.56
2023-09-30T05:55:52.411Z,102595.66
2023-09-30T05:58:02.453Z,102596.47
2023-09-30T06:00:22.756Z,102586.75
2023-09-30T06:02:33.681Z,102587.41
2023-09-30T06:04:39.624Z,102589.97
2023-09-30T06:06:52.027Z,102580.19
2023-09-30T06:09:00.215Z,102590.75
2023-09-30T06:11:09.129Z,102594.31
2023-09-30T06:13:18.324Z,102592.50
2023-09-30T06:15:27.814Z,102593.47
2023-09-30T06:17:37.987Z,102594.28
2023-09-30T06:19:52.317Z,102593.44
2023-09-30T06:22:04.519Z,102586.44
2023-09-30T06:24:11.989Z,102604.94
2023-09-30T06:26:20.317Z,102616.31
2023-09-30T06:28:33.425Z,102618.84
2023-09-30T06:30:43.127Z,102619.66
2023-09-30T06:32:51.619Z,102631.91
2023-09-30T06:34:57.155Z,102635.34
2023-09-30T06:37:02.166Z,102631.75
2023-09-30T06:39:07.925Z,102635.25
2023-09-30T06:41:10.953Z,102634.25
2023-09-30T06:43:17.012Z,102622.72
2023-09-30T06:45:24.708Z,102634.91
2023-09-30T06:47:32.278Z,102634.72
2023-09-30T06:49:41.237Z,102637.22
2023-09-30T06:51:51.532Z,102638.81
2023-09-30T06:54:02.691Z,102639.59
2023-09-30T06:56:09.817Z,102634.22
2023-09-30T06:58:15.392Z,102635.84
2023-09-30T07:00:20.659Z,102640.09
2023-09-30T07:02:23.208Z,102646.97
2023-09-30T07:04:28.386Z,102652.94
2023-09-30T07:06:38.121Z,102654.66
2023-09-30T07:08:46.312Z,102652.75
2023-09-30T07:10:55.854Z,102667.59
2023-09-30T07:13:01.414Z,102664.84
2023-09-30T07:15:06.981Z,102671.69
2023-09-30T07:17:14.315Z,102666.19
2023-09-30T07:19:20.575Z,102673.13
2023-09-30T07:21:26.269Z,102666.94
2023-09-30T07:23:36.765Z,102672.03
2023-09-30T07:25:41.999Z,102680.72
2023-09-30T07:27:53.752Z,102671.59
2023-09-30T07:30:12.267Z,102681.91
2023-09-30T07:32:17.240Z,102682.41
2023-09-30T07:34:22.678Z,102685.63
2023-09-30T07:36:27.928Z,102679.28
2023-09-30T07:38:33.041Z,102681.50
2023-09-30T07:40:40.965Z,102687.50
2023-09-30T07:42:48.157Z,102676.19
2023-09-30T07:44:54.236Z,102679.63
2023-09-30T07:47:00.080Z,102677.44
2023-09-30T07:49:05.272Z,102676.25
2023-09-30T07:51:14.495Z,102670.22
2023-09-30T07:53:20.139Z,102667.47
2023-09-30T07:55:25.151Z,102659.31
2023-09-30T07:57:32.753Z,102654.50
2023-09-30T07:59:37.876Z,102649.41
2023-09-30T08:01:42.971Z,102651.72
2023-09-30T08:03:48.002Z,102650.69
2023-09-30T08:05:55.359Z,102649.28
2023-09-30T08:08:00.591Z,102647.38
2023-09-30T08:10:06.603Z,102640.59
2023-09-30T08:12:11.993Z,102638.66
2023-09-30T08:14:22.422Z,102643.41
2023-09-30T08:16:28.048Z,102647.53
2023-09-30T08:18:34.046Z,102653.66
2023-09-30T08:20:39.185Z,102658.53
2023-09-30T08:22:44.399Z,102655.22
2023-09-30T08:24:52.530Z,102647.34
2023-09-30T08:26:57.831Z,102640.00
2023-09-30T08:29:02.940Z,102639.72
2023-09-30T08:31:10.897Z,102644.09
2023-09-30T08:33:16.508Z,102647.53
2023-09-30T08:35:22.058Z,102647.28
2023-09-30T08:37:28.931Z,102643.50
2023-09-30T08:39:34.065Z,102648.28
2023-09-30T08:41:39.578Z,102660.16
2023-09-30T08:43:49.187Z,102664.13
2023-09-30T08:45:58.580Z,102661.47
2023-09-30T08:48:07.255Z,102679.31
2023-09-30T08:50:13.779Z,102683.94
2023-09-30T08:52:19.741Z,102682.75
2023-09-30T08:54:29.216Z,102687.22
2023-09-30T08:56:36.521Z,102686.75
2023-09-30T08:58:59.717Z,102689.22
2023-09-30T09:01:05.811Z,102699.84
2023-09-30T09:03:13.873Z,102710.41
2023-09-30T09:05:19.485Z,102720.84
2023-09-30T09:07:24.554Z,102728.25
2023-09-30T09:09:29.553Z,102737.19
2023-09-30T09:11:44.242Z,102735.59
2023-09-30T09:13:57.630Z,102732.84
2023-09-30T09:16:13.341Z,102730.03
2023-09-30T09:18:36.971Z,102729.56
2023-09-30T09:20:51.117Z,102724.53
2023-09-30T09:23:01.612Z,102725.34
2023-09-30T09:25:06.684Z,102730.72
2023-09-30T09:27:18.448Z,102731.88
2023-09-30T09:29:30.221Z,102728.00
2023-09-30T09:31:36.679Z,102726.25
2023-09-30T09:33:43.305Z,102725.97
2023-09-30T09:35:58.399Z,102727.97
2023-09-30T09:38:05.611Z,102726.16
2023-09-30T09:40:27.701Z,102730.09
2023-09-30T09:42:37.594Z,102731.34
2023-09-30T09:44:46.564Z,102726.47
2023-09-30T09:46:53.034Z,102727.53
2023-09-30T09:49:04.015Z,102732.69
2023-09-30T09:51:28.278Z,102734.94
2023-09-30T09:53:40.198Z,102734.75
2023-09-30T09:55:47.458Z,102731.44
2023-09-30T09:57:59.490Z,102718.44
2023-09-30T10:00:13.194Z,102729.44
2023-09-30T10:02:33.761Z,102721.81
2023-09-30T10:04:42.173Z,102710.41
2023-09-30T10:06:57.414Z,102707.38
2023-09-30T10:09:03.628Z,102695.09
2023-09-30T10:11:30.327Z,102697.22
2023-09-30T10:13:56.921Z,102690.47
2023-09-30T10:16:00.301Z,102687.97
2023-09-30T10:18:11.254Z,102682.63
2023-09-30T10:20:31.857Z,102691.34
2023-09-30T10:22:37.401Z,102682.31
2023-09-30T10:24:40.020Z,102687.53
2023-09-30T10:26:46.854Z,102694.31
2023-09-30T10:31:34.348Z,102676.72
2023-09-30T10:33:37.104Z,102682.75
2023-09-30T10:35:54.107Z,102682.41
2023-09-30T10:38:42.221Z,102685.34
2023-09-30T10:40:52.195Z,102681.22
2023-09-30T10:43:00.739Z,102684.69
2023-09-30T10:45:08.907Z,102687.72
2023-09-30T10:47:44.147Z,102681.22
2023-09-30T10:49:52.637Z,102686.94
2023-09-30T10:51:59.132Z,102698.38
2023-09-30T10:54:04.685Z,102689.28
2023-09-30T10:58:42.698Z,102684.88
2023-09-30T11:00:57.160Z,102686.19
2023-09-30T11:03:03.755Z,102680.19
2023-09-30T11:05:17.858Z,102678.13
2023-09-30T11:07:39.608Z,102669.28
2023-09-30T11:09:45.408Z,102661.41
2023-09-30T11:11:55.942Z,102664.34
2023-09-30T11:13:58.337Z,102657.06
2023-09-30T11:16:10.037Z,102659.72
2023-09-30T11:18:22.995Z,102650.84
2023-09-30T11:20:28.095Z,102650.72
2023-09-30T11:22:33.076Z,102658.59
2023-09-30T11:24:39.933Z,102665.16
2023-09-30T11:26:45.520Z,102664.13
2023-09-30T11:28:54.853Z,102667.00
2023-09-30T11:31:01.554Z,102676.28
2023-09-30T11:33:08.641Z,102681.34
2023-09-30T11:35:15.301Z,102676.47
2023-09-30T11:37:18.791Z,102681.56
2023-09-30T11:39:28.285Z,102673.63
2023-09-30T11:41:42.716Z,102667.91
2023-09-30T11:44:14.051Z,102668.06
2023-09-30T11:46:20.712Z,102681.59
2023-09-30T11:48:25.970Z,102677.72
2023-09-30T11:50:48.595Z,102665.47
2023-09-30T11:52:53.759Z,102661.38
2023-09-30T11:54:59.523Z,102652.72
2023-09-30T11:57:05.514Z,102643.25
2023-09-30T11:59:11.872Z,102637.38
2023-09-30T12:01:17.725Z,102636.63
2023-09-30T12:03:23.046Z,102647.03
2023-09-30T12:05:28.003Z,102651.56
2023-09-30T12:07:34.563Z,102646.94
2023-09-30T12:09:43.718Z,102642.75
2023-09-30T12:11:51.703Z,102633.09
2023-09-30T12:13:57.056Z,102641.91
2023-09-30T12:16:05.148Z,102650.06
2023-09-30T12:18:11.499Z,102647.63
2023-09-30T12:20:19.314Z,102643.00
2023-09-30T12:22:24.738Z,102648.47
2023-09-30T12:24:30.261Z,102650.25
2023-09-30T12:26:35.676Z,102642.56
2023-09-30T12:28:42.164Z,102639.88
2023-09-30T12:30:47.625Z,102642.06
2023-09-30T12:32:56.524Z,102629.78
2023-09-30T12:35:02.195Z,102647.38
2023-09-30T12:37:07.247Z,102647.22
2023-09-30T12:39:14.546Z,102642.91
2023-09-30T12:41:20.736Z,102641.50
2023-09-30T12:43:26.454Z,102638.44
2023-09-30T12:45:32.018Z,102637.41
2023-09-30T12:47:37.086Z,102636.47
2023-09-30T12:49:47.113Z,102629.22
2023-09-30T12:51:52.612Z,102638.94
2023-09-30T12:54:01.082Z,102635.06
2023-09-30T12:56:06.250Z,102631.84
2023-09-30T12:58:11.694Z,102640.91
2023-09-30T13:00:17.638Z,102635.81
2023-09-30T13:02:22.591Z,102633.19
2023-09-30T13:04:28.601Z,102634.09
2023-09-30T13:06:36.742Z,102619.44
2023-09-30T13:08:42.146Z,102618.88
2023-09-30T13:10:51.574Z,102624.97
2023-09-30T13:12:56.935Z,102622.38
2023-09-30T13:14:59.352Z,102625.94
2023-09-30T13:17:06.664Z,102608.25
2023-09-30T13:19:10.313Z,102609.03
2023-09-30T13:21:18.386Z,102608.69
2023-09-30T13:23:25.899Z,102606.53
2023-09-30T13:25:31.041Z,102603.94
2023-09-30T13:27:33.779Z,102603.94
2023-09-30T13:29:39.734Z,102599.22
2023-09-30T13:31:47.525Z,102601.94
2023-09-30T13:33:52.633Z,102597.50
2023-09-30T13:36:00.547Z,102600.75
2023-09-30T13:38:05.570Z,102600.66
2023-09-30T13:40:17.183Z,102602.56
2023-09-30T13:42:19.690Z,102606.25
2023-09-30T13:44:27.253Z,102614.28
2023-09-30T13:46:32.451Z,102614.63
2023-09-30T13:48:38.128Z,102603.34
2023-09-30T13:50:43.317Z,102602.69
2023-09-30T13:52:48.168Z,102601.59
2023-09-30T13:54:54.355Z,102593.25
2023-09-30T13:57:01.984Z,102598.97
2023-09-30T13:59:08.485Z,102589.66
2023-09-30T14:01:17.666Z,102584.47
2023-09-30T14:03:22.979Z,102583.91
2023-09-30T14:05:28.146Z,102583.41
2023-09-30T14:07:33.315Z,102581.66
2023-09-30T14:09:39.081Z,102593.78
2023-09-30T14:11:47.362Z,102591.88
2023-09-30T14:13:55.492Z,102581.78
2023-09-30T14:16:00.858Z,102583.00
2023-09-30T14:18:06.103Z,102591.38
2023-09-30T14:20:13.735Z,102594.03
2023-09-30T14:22:21.626Z,102584.16
2023-09-30T14:24:26.703Z,102582.34
2023-09-30T14:26:32.098Z,102584.16
2023-09-30T14:28:37.302Z,102580.28
2023-09-30T14:30:46.410Z,102582.81
2023-09-30T14:32:51.600Z,102589.88
2023-09-30T14:34:57.117Z,102599.34
2023-09-30T14:36:59.669Z,102590.03
2023-09-30T14:39:14.651Z,102591.97
2023-09-30T14:41:20.587Z,102590.03
2023-09-30T14:43:25.530Z,102584.72
2023-09-30T14:45:32.725Z,102583.72
2023-09-30T14:47:40.684Z,102581.09
2023-09-30T14:49:48.038Z,102582.06
2023-09-30T14:51:53.610Z,102576.44
2023-09-30T14:53:56.075Z,102571.81
2023-09-30T14:56:01.013Z,102569.56
2023-09-30T14:58:06.687Z,102577.81
2023-09-30T15:00:13.852Z,102581.25
2023-09-30T15:02:21.037Z,102578.81
2023-09-30T15:04:29.562Z,102577.59
2023-09-30T15:06:35.784Z,102573.69
2023-09-30T15:08:41.734Z,102567.16
2023-09-30T15:10:47.377Z,102567.50
2023-09-30T15:12:55.518Z,102564.63
2023-09-30T15:15:00.830Z,102557.53
2023-09-30T15:17:07.128Z,102547.88
2023-09-30T15:19:12.378Z,102548.88
2023-09-30T15:21:21.247Z,102554.41
2023-09-30T15:23:26.603Z,102544.88
2023-09-30T15:25:32.019Z,102551.09
2023-09-30T15:27:37.328Z,102550.75
2023-09-30T15:29:46.758Z,102551.38
2023-09-30T15:31:51.846Z,102553.94
2023-09-30T15:33:57.360Z,102544.75
2023-09-30T15:36:02.407Z,102542.38
2023-09-30T15:38:15.131Z,102537.09
2023-09-30T15:40:23.449Z,102535.00
2023-09-30T15:42:28.871Z,102535.09
2023-09-30T15:44:34.696Z,102532.19
2023-09-30T15:46:43.433Z,102535.47
2023-09-30T15:48:48.339Z,102535.31
2023-09-30T15:50:53.715Z,102526.13
2023-09-30T15:52:58.808Z,102525.97
2023-09-30T15:55:06.773Z,102531.63
2023-09-30T15:57:12.336Z,102524.47
2023-09-30T15:59:17.463Z,102532.34
2023-09-30T16:01:22.557Z,102530.28
2023-09-30T16:03:27.995Z,102529.38
2023-09-30T16:05:32.979Z,102525.66
2023-09-30T16:07:37.874Z,102521.44
2023-09-30T16:09:42.746Z,102528.94
2023-09-30T16:11:50.737Z,102539.88
2023-09-30T16:13:56.010Z,102535.28
2023-09-30T16:16:01.218Z,102538.84
2023-09-30T16:18:04.017Z,102547.28
2023-09-30T16:20:13.711Z,102545.16
2023-09-30T16:22:21.535Z,102546.47
2023-09-30T16:24:26.408Z,102548.28
2023-09-30T16:26:32.454Z,102553.31
2023-09-30T16:28:41.185Z,102548.56
2023-09-30T16:30:49.185Z,102546.41
2023-09-30T16:32:54.663Z,102539.78
2023-09-30T16:35:16.877Z,102538.84
2023-09-30T16:37:22.270Z,102557.41
2023-09-30T16:39:27.501Z,102551.28
2023-09-30T16:41:32.425Z,102560.78
2023-09-30T16:43:40.724Z,102564.28
2023-09-30T16:45:47.912Z,102567.66
2023-09-30T16:48:01.448Z,102566.09
2023-09-30T16:50:50.553Z,102555.16
2023-09-30T16:52:59.207Z,102561.56
2023-09-30T16:58:05.384Z,102557.69
2023-09-30T17:00:16.523Z,102552.94
2023-09-30T17:02:53.759Z,102561.69
2023-09-30T17:05:10.787Z,102557.88
2023-09-30T17:07:22.772Z,102557.31
2023-09-30T17:13:15.943Z,102557.66
2023-09-30T17:18:08.222Z,102562.09
2023-09-30T17:20:49.300Z,102551.63
2023-09-30T17:23:23.826Z,102544.72
2023-09-30T17:25:33.705Z,102544.03
2023-09-30T17:27:41.181Z,102541.31
2023-09-30T17:31:39.315Z,102541.38
2023-09-30T17:36:40.026Z,102529.28
2023-09-30T17:39:07.270Z,102519.03
2023-09-30T17:41:12.392Z,102524.22
2023-09-30T17:43:21.052Z,102531.59
2023-09-30T17:45:25.924Z,102530.09
2023-09-30T17:47:38.271Z,102545.19
2023-09-30T17:49:46.119Z,102534.56
2023-09-30T17:52:00.249Z,102543.53
2023-09-30T17:54:05.494Z,102557.22
2023-09-30T17:56:18.659Z,102563.34
2023-09-30T17:58:33.323Z,102568.06
2023-09-30T18:00:39.024Z,102567.47
2023-09-30T18:02:46.829Z,102559.34
2023-09-30T18:04:56.202Z,102550.72
2023-09-30T18:07:03.973Z,102546.38
2023-09-30T18:09:14.186Z,102554.31
2023-09-30T18:11:22.263Z,102550.09
2023-09-30T18:13:27.583Z,102551.06
2023-09-30T18:15:33.039Z,102540.53
2023-09-30T18:17:38.057Z,102530.81
2023-09-30T18:19:43.064Z,102529.94
2023-09-30T18:22:01.645Z,102529.94
2023-09-30T18:24:07.553Z,102524.56
2023-09-30T18:26:12.625Z,102516.72
2023-09-30T18:28:15.286Z,102525.56
2023-09-30T18:30:19.996Z,102521.41
2023-09-30T18:32:25.040Z,102518.81
2023-09-30T18:34:31.305Z,102518.88
2023-09-30T18:36:45.522Z,102528.75
2023-09-30T18:38:53.541Z,102537.69
2023-09-30T18:40:58.597Z,102537.03
2023-09-30T18:43:04.723Z,102535.34
2023-09-30T18:45:10.703Z,102522.09
2023-09-30T18:47:13.191Z,102521.78
2023-09-30T18:49:18.311Z,102524.88
2023-09-30T18:51:23.843Z,102527.75
2023-09-30T18:53:28.860Z,102535.06
2023-09-30T18:55:39.383Z,102539.78
2023-09-30T18:57:47.247Z,102532.28
2023-09-30T18:59:54.976Z,102522.69
2023-09-30T19:02:00.235Z,102516.56
2023-09-30T19:04:05.513Z,102513.19
2023-09-30T19:06:10.626Z,102516.94
2023-09-30T19:08:16.923Z,102523.34
2023-09-30T19:10:22.241Z,102532.50
2023-09-30T19:12:29.778Z,102528.38
2023-09-30T19:14:37.490Z,102529.28
2023-09-30T19:16:47.043Z,102522.41
2023-09-30T19:18:52.532Z,102527.91
2023-09-30T19:21:00.940Z,102524.41
2023-09-30T19:23:05.949Z,102524.41
2023-09-30T19:25:12.420Z,102524.59
2023-09-30T19:27:17.482Z,102528.16
2023-09-30T19:29:25.037Z,102522.00
2023-09-30T19:31:33.796Z,102512.38
2023-09-30T19:33:39.147Z,102495.66
2023-09-30T19:35:49.127Z,102502.66
2023-09-30T19:37:54.414Z,102506.97
2023-09-30T19:40:00.364Z,102518.53
2023-09-30T19:42:07.312Z,102521.25
2023-09-30T19:44:12.646Z,102524.75
2023-09-30T19:46:20.648Z,102521.06
2023-09-30T19:48:25.795Z,102528.16
2023-09-30T19:50:33.984Z,102532.59
2023-09-30T19:52:39.138Z,102528.28
2023-09-30T19:54:45.039Z,102521.19
2023-09-30T19:56:50.210Z,102513.91
2023-09-30T19:59:04.638Z,102521.88
2023-09-30T20:03:32.312Z,102522.59
2023-09-30T20:05:38.360Z,102520.66
2023-09-30T20:07:46.527Z,102523.34
2023-09-30T20:09:52.713Z,102529.56
2023-09-30T20:12:04.032Z,102530.44
2023-09-30T20:14:10.812Z,102532.25
2023-09-30T20:16:17.740Z,102528.66
2023-09-30T20:18:22.826Z,102526.91
2023-09-30T20:20:37.885Z,102520.78
2023-09-30T20:22:42.924Z,102534.03
2023-09-30T20:24:50.921Z,102530.44
2023-09-30T20:27:04.066Z,102528.66
2023-09-30T20:29:09.208Z,102524.19
2023-09-30T20:31:16.742Z,102539.19
2023-09-30T20:33:22.324Z,102535.50
2023-09-30T20:35:27.373Z,102543.41
2023-09-30T20:37:45.287Z,102532.75
2023-09-30T20:39:52.918Z,102528.22
2023-09-30T20:41:58.638Z,102516.81
2023-09-30T20:44:05.811Z,102507.91
2023-09-30T20:46:17.805Z,102516.66
2023-09-30T20:48:23.315Z,102515.72
2023-09-30T20:50:28.280Z,102521.84
2023-09-30T20:52:35.979Z,102525.41
2023-09-30T20:54:43.226Z,102530.66
2023-09-30T20:56:46.760Z,102537.78
2023-09-30T20:58:52.003Z,102541.41
2023-09-30T21:00:59.358Z,102542.25
2023-09-30T21:03:05.298Z,102535.00
2023-09-30T21:05:11.380Z,102531.41
2023-09-30T21:07:16.860Z,102530.50
2023-09-30T21:09:24.544Z,102530.50
2023-09-30T21:11:29.359Z,102531.28
2023-09-30T21:13:37.612Z,102523.41
2023-09-30T21:15:42.696Z,102525.91
2023-09-30T21:17:47.586Z,102523.19
2023-09-30T21:19:52.782Z,102527.69
2023-09-30T21:21:58.370Z,102521.47
2023-09-30T21:24:04.297Z,102512.66
2023-09-30T21:26:15.384Z,102515.34
2023-09-30T21:28:24.427Z,102512.66
2023-09-30T21:30:30.809Z,102512.66
2023-09-30T21:32:36.528Z,102521.50
2023-09-30T21:34:44.188Z,102518.88
2023-09-30T21:36:49.647Z,102521.50
2023-09-30T21:38:54.865Z,102513.63
2023-09-30T21:41:00.162Z,102507.41
2023-09-30T21:43:07.888Z,102499.41
2023-09-30T21:45:13.541Z,102496.69
2023-09-30T21:47:18.367Z,102494.13
2023-09-30T21:49:23.571Z,102491.47
2023-09-30T21:51:28.531Z,102490.53
2023-09-30T21:53:32.580Z,102488.72
2023-09-30T21:55:39.085Z,102486.91
2023-09-30T21:57:44.128Z,102484.22
2023-09-30T21:59:55.732Z,102485.13
2023-09-30T22:02:01.770Z,102485.00
2023-09-30T22:04:07.361Z,102484.09
2023-09-30T22:06:12.569Z,102482.97
2023-09-30T22:08:17.678Z,102480.44
2023-09-30T22:10:23.687Z,102471.47
2023-09-30T22:12:30.077Z,102477.59
2023-09-30T22:14:37.986Z,102473.97
2023-09-30T22:16:47.826Z,102487.03
2023-09-30T22:18:55.342Z,102482.66
2023-09-30T22:21:00.409Z,102479.03
2023-09-30T22:23:05.701Z,102463.88
2023-09-30T22:25:13.291Z,102464.00
2023-09-30T22:27:18.328Z,102460.31
2023-09-30T22:29:25.428Z,102469.28
2023-09-30T22:31:30.800Z,102466.53
2023-09-30T22:33:38.714Z,102463.75
2023-09-30T22:35:49.456Z,102457.56
2023-09-30T22:37:54.912Z,102466.25
2023-09-30T22:40:00.289Z,102462.00
2023-09-30T22:42:05.353Z,102450.50
2023-09-30T22:44:10.655Z,102454.91
2023-09-30T22:46:16.212Z,102456.41
2023-09-30T22:48:21.265Z,102451.19
2023-09-30T22:50:28.784Z,102446.66
2023-09-30T22:52:31.191Z,102446.78
2023-09-30T22:54:36.194Z,102447.75
2023-09-30T22:56:44.145Z,102438.13
2023-09-30T22:58:49.879Z,102434.53
2023-09-30T23:00:55.431Z,102434.50
2023-09-30T23:03:01.325Z,102444.06
2023-09-30T23:05:07.873Z,102441.47
2023-09-30T23:07:15.583Z,102436.09
2023-09-30T23:09:23.306Z,102434.31
2023-09-30T23:11:29.065Z,102430.66
2023-09-30T23:13:33.883Z,102428.03
2023-09-30T23:15:47.597Z,102434.13
2023-09-30T23:17:54.004Z,102431.56
2023-09-30T23:19:59.200Z,102426.19
2023-09-30T23:22:05.265Z,102425.38
2023-09-30T23:24:13.657Z,102420.88
2023-09-30T23:26:20.449Z,102423.38
2023-09-30T23:28:26.041Z,102417.06
2023-09-30T23:30:31.260Z,102415.56
2023-09-30T23:32:36.386Z,102414.59
2023-09-30T23:34:48.842Z,102412.88
2023-09-30T23:36:54.805Z,102405.91
2023-09-30T23:39:04.262Z,102408.31
2023-09-30T23:41:14.185Z,102410.97
2023-09-30T23:43:21.812Z,102406.63
2023-09-30T23:45:27.960Z,102404.97
2023-09-30T23:47:48.932Z,102404.06
2023-09-30T23:49:57.066Z,102404.84
2023-09-30T23:52:02.172Z,102397.00
2023-09-30T23:54:10.128Z,102393.50
2023-09-30T23:56:18.107Z,102393.53
2023-09-30T23:58:23.174Z,102388.19
